AirNav   Airventure
 
 876 users online  

21CL La County Sheriff Lancaster Station Heliport
Lancaster, California, USA

GOING TO LANCASTER?


FAA INFORMATION EFFECTIVE 20 JULY 2017

Location

FAA Identifier: 21CL
Lat/Long: 34-42-01.0400N / 118-08-17.1100W
34-42.017333N / 118-08.285167W
34.7002889 / -118.1380861
(estimated)
Elevation: 2367 ft. / 721 m (estimated)
Variation: 14E (1985)
From city: HELI LCTD 6NM SE OF FOX FIELD.
Time zone: UTC -7 (UTC -8 during Standard Time)
Zip code: 93535

Heliport Operations

Heliport use: Private use. Permission required prior to landing
Activation date: 07/1972
Control tower: no
ARTCC: LOS ANGELES CENTER
FSS: RIVERSIDE FLIGHT SERVICE STATION
Attendance: CONTINUOUS
Wind indicator: yes
Segmented circle: no

Heliport Communications

WX ASOS at WJF (5 nm NW): PHONE 661-949-2840
WX ASOS at PMD (5 nm SE): PHONE 661-272-3798

Nearby radio navigation aids

VOR radial/distance  VOR name  Freq  Var
PMDr303/5.5PALMDALE VORTAC114.5015E
LHSr072/21.7LAKE HUGHES VORTAC108.4015E
EDWr215/26.2EDWARDS VORTAC116.4015E
VNYr016/33.5VAN NUYS VOR/DME113.1015E
GMNr084/36.2GORMAN VORTAC116.1016E
VCVr266/37.5VICTORVILLE VOR/DME109.0514E

 
NDB name  Hdg/Dist  Freq  Var  ID
PACOIMA012/29.737015EPAI .--. .- ..
EL MONTE337/37.135915EEMT . -- -

Heliport Services

Airframe service: NONE
Powerplant service: NONE

Runway Information

Helipad H1

Dimensions: 100 x 95 ft. / 30 x 29 m
Surface: concrete
Latitude: 34-42.017333N
Longitude: 118-08.285167W
Elevation: 2367.0 ft.
Traffic pattern: leftleft

Heliport Ownership and Management from official FAA records

Ownership: Publicly-owned
Owner: LOS ANGELES COUNTY
4700 RAMONA BLVD
MONTEREY PARK, CA 91754-2169
Manager: ROBERT RENTERIA
3235 LAKEWOOD BLVD
LONG BEACH, CA 90808
Phone 562-421-2701

Additional Remarks

A52-H1 MICROWAVE TWR SOUTH 400 FEET LGTD/MKD.

Instrument Procedures

There are no published instrument procedures at 21CL.

Some nearby airports with instrument procedures:

KWJF - General Wm J Fox Airfield (5 nm NW)
KPMD - Palmdale USAF Plant 42 Airport (5 nm SE)
KEDW - Edwards Air Force Base (18 nm NE)
KMHV - Mojave Air and Space Port (22 nm N)
L71 - California City Municipal Airport (28 nm N)
 
Loc | Ops | Rwys | IFR | FBO | Links
Com | Nav | Svcs | Stats | Notes


 
Area around 21CL (La County Sheriff Lancaster Station Heliport)
 
Road maps at: MapQuest Bing Google
 
Aerial photo
No photo
 
Sectional chart

 
Airport distance calculator
Flying to La County Sheriff Lancaster Station Heliport? Find the distance to fly.

From to 21CL

Sunrise and sunset
Times for 21-Jul-2017
 Local
(UTC-7)
 Zulu
(UTC)
Morning civil twilight05:2712:27
Sunrise05:5612:56
Sunset20:0203:02
Evening civil twilight20:3103:31

Current date and time
Zulu (UTC)  22-Jul-2017 02:28:46
Local (UTC-7)  21-Jul-2017 19:28:46
 
METAR
KWJF 
4nm W 
220156Z 24018KT 10SM CLR 32/10 A2992 RMK AO2 SLP110 T03170100
KPMD 
5nm SE 
220153Z AUTO 25013KT 10SM CLR 32/09 A2993 RMK AO2 SLP104 T03170094
KEDW 
17nm NE 
220158Z 24022KT 50SM CLR 34/04 A2987 RMK AO2A PK WND 25026/39 SLP090 T03380039
TAF
KWJF 
4nm W 
211720Z 2118/2218 25012KT P6SM SKC FM212200 24018G26KT P6SM SKC FM220200 24014KT P6SM SKC FM220700 24010KT P6SM SKC
KPMD 
5nm SE 
212033Z 2121/2218 24010KT P6SM SKC FM212200 23015G25KT P6SM SKC FM220100 24012KT P6SM SKC FM220700 21007KT P6SM SKC FM221300 VRB03KT P6SM SKC
KEDW 
17nm NE 
211803Z 2118/2224 VRB06KT 9999 SKC QNH2990INS BECMG 2120/2121 23012KT 9999 SKC QNH2990INS BECMG 2122/2123 23015G25KT 9999 SKC QNH2989INS BECMG 2203/2204 20009KT 9999 SKC QNH2991INS BECMG 2208/2209 VRB06KT 9999 SKC QNH2993INS BECMG 2222/2223 23012G18KT 9999 SCT300 QNH2987INS TX38/2122Z TN20/2213Z
NOTAMs
Click for the latest NOTAMs
NOTAMs are issued by the DoD/FAA and will open in a separate window not controlled by AirNav.

 

 
 

Would you like to see your business listed on this page?

 If your business provides an interesting product or service to pilots, flight crews, aircraft, or users of the La County Sheriff Lancaster Station Heliport, you should consider listing it here.  To start the listing process, click on the button below
 
Add a business
 

Other Pages about La County Sheriff Lancaster Station Heliport

Update a link
 
Copyright © AirNav, LLC. All rights reserved. Privacy Policy  Contact